Time;durP1;ratioP1;P1;durP2;ratioP2;P2;SDS_P1;SDS_P2;PMS_P1;PMS_P2;Temp;Humidity;BMP_temperature;BMP_pressure;BME280_temperature;BME280_humidity;BME280_pressure;Samples;Min_cycle;Max_cycle;Signal;HPM_P1;HPM_P2
2022/08/24 00:00:24;;;;;;;;;;;;;;;;;;4908649;29;20026;-72
2022/08/24 00:02:53;;;;;;;;;;;;;;;;;;4907088;29;20395;-74
2022/08/24 00:05:21;;;;;;;;;;;;;;;;;;4911914;29;19990;-72
2022/08/24 00:07:48;;;;;;;;;;;;;;;;;;4909880;29;19927;-74
2022/08/24 00:10:16;;;;;;;;;;;;;;;;;;4925706;29;19931;-73
2022/08/24 00:12:43;;;;;;;;;;;;;;;;;;4912267;29;19931;-72
2022/08/24 00:15:10;;;;;;;;;;;;;;;;;;4907480;29;19931;-74
2022/08/24 00:17:38;;;;;;;;;;;;;;;;;;4911635;29;19937;-72
2022/08/24 00:20:05;;;;;;;;;;;;;;;;;;4910824;29;19931;-72
2022/08/24 00:22:32;;;;;;;;;;;;;;;;;;4912210;29;19938;-72
2022/08/24 00:25:00;;;;;;;;;;;;;;;;;;4907578;29;19978;-72
2022/08/24 00:27:27;;;;;;;;;;;;;;;;;;4910809;29;20455;-74
2022/08/24 00:29:54;;;;;;;;;;;;;;;;;;4907021;29;20455;-72
2022/08/24 00:32:21;;;;;;;;;;;;;;;;;;4908879;29;19950;-73
2022/08/24 00:34:49;;;;;;;;;;;;;;;;;;4911987;29;20665;-72
2022/08/24 00:37:20;;;;;;;;;;;;;;;;;;4910433;29;19938;-72
2022/08/24 00:39:47;;;;;;;;;;;;;;;;;;4911650;29;19931;-73
2022/08/24 00:42:14;;;;;;;;;;;;;;;;;;4909685;29;20285;-72
2022/08/24 00:44:41;;;;;;;;;;;;;;;;;;4908643;29;19933;-74
2022/08/24 00:47:09;;;;;;;;;;;;;;;;;;4922930;29;19927;-72
2022/08/24 00:49:36;;;;;;;;;;;;;;;;;;4907446;29;19973;-74
2022/08/24 00:52:03;;;;;;;;;;;;;;;;;;4908819;29;20411;-72
2022/08/24 00:54:31;;;;;;;;;;;;;;;;;;4924715;29;19985;-73
2022/08/24 00:56:58;;;;;;;;;;;;;;;;;;4910779;29;20022;-72
2022/08/24 00:59:25;;;;;;;;;;;;;;;;;;4910484;29;20319;-72
2022/08/24 01:01:53;;;;;;;;;;;;;;;;;;4908769;29;19931;-74
2022/08/24 01:04:20;;;;;;;;;;;;;;;;;;4891526;29;20357;-71
2022/08/24 01:06:48;;;;;;;;;;;;;;;;;;4909133;29;19935;-72
2022/08/24 01:09:16;;;;;;;;;;;;;;;;;;4939489;23;19931;-82
2022/08/24 01:11:43;;;;;;;;;;;;;;;;;;4932794;29;19994;-82
2022/08/24 01:14:10;;;;;;;;;;;;;;;;;;4920859;29;19935;-83
2022/08/24 01:19:25;;;;;;;;;;;;;;;;;;4896890;29;20419;-83
2022/08/24 01:21:53;;;;;;;;;;;;;;;;;;4911200;29;19927;-84
2022/08/24 01:24:20;;;;;;;;;;;;;;;;;;4910876;29;19955;-84
2022/08/24 01:26:47;;;;;;;;;;;;;;;;;;4910574;29;19978;-83
2022/08/24 01:29:15;;;;;;;;;;;;;;;;;;4912265;29;19931;-83
2022/08/24 01:31:42;;;;;;;;;;;;;;;;;;4896767;29;19986;-84
2022/08/24 01:34:11;;;;;;;;;;;;;;;;;;4900676;29;19931;-83
2022/08/24 01:36:39;;;;;;;;;;;;;;;;;;4913344;29;20030;-84
2022/08/24 01:39:06;;;;;;;;;;;;;;;;;;4912089;29;19931;-83
2022/08/24 01:41:34;;;;;;;;;;;;;;;;;;4896308;29;19937;-83
2022/08/24 01:44:01;;;;;;;;;;;;;;;;;;4896388;29;19927;-83
2022/08/24 01:46:29;;;;;;;;;;;;;;;;;;4911046;29;20398;-83
2022/08/24 01:48:59;;;;;;;;;;;;;;;;;;4912536;29;19931;-83
2022/08/24 01:51:26;;;;;;;;;;;;;;;;;;4911244;29;19931;-83
2022/08/24 01:53:54;;;;;;;;;;;;;;;;;;4897568;29;19969;-83
2022/08/24 01:56:21;;;;;;;;;;;;;;;;;;4893408;29;19982;-83
2022/08/24 01:58:49;;;;;;;;;;;;;;;;;;4910819;29;19931;-83
2022/08/24 02:01:17;;;;;;;;;;;;;;;;;;4910141;29;19935;-84
2022/08/24 02:03:44;;;;;;;;;;;;;;;;;;4890711;29;19954;-83
2022/08/24 02:06:11;;;;;;;;;;;;;;;;;;4909277;29;19973;-83
2022/08/24 02:08:40;;;;;;;;;;;;;;;;;;4896024;29;20030;-83
2022/08/24 02:11:08;;;;;;;;;;;;;;;;;;4910577;29;19931;-83
2022/08/24 02:13:35;;;;;;;;;;;;;;;;;;4911074;29;19943;-83
2022/08/24 02:16:04;;;;;;;;;;;;;;;;;;4911555;29;19998;-84
2022/08/24 02:18:33;;;;;;;;;;;;;;;;;;4895021;29;19937;-83
2022/08/24 02:21:00;;;;;;;;;;;;;;;;;;4912323;29;20442;-84
2022/08/24 02:23:27;;;;;;;;;;;;;;;;;;4894125;29;20351;-83
2022/08/24 02:25:55;;;;;;;;;;;;;;;;;;4909730;29;20017;-83
2022/08/24 02:28:22;;;;;;;;;;;;;;;;;;4911112;29;19959;-83
2022/08/24 02:30:50;;;;;;;;;;;;;;;;;;4909833;29;19931;-83
2022/08/24 02:33:17;;;;;;;;;;;;;;;;;;4909487;29;20285;-83
2022/08/24 02:35:44;;;;;;;;;;;;;;;;;;4898257;29;19935;-83
2022/08/24 02:38:12;;;;;;;;;;;;;;;;;;4910209;29;19938;-82
2022/08/24 02:40:39;;;;;;;;;;;;;;;;;;4912449;29;20394;-83
2022/08/24 02:43:07;;;;;;;;;;;;;;;;;;4893924;29;19938;-83
2022/08/24 02:45:34;;;;;;;;;;;;;;;;;;4910428;29;19938;-83
2022/08/24 02:48:01;;;;;;;;;;;;;;;;;;4911928;29;19930;-84
2022/08/24 02:50:29;;;;;;;;;;;;;;;;;;4896730;29;20359;-83
2022/08/24 02:52:56;;;;;;;;;;;;;;;;;;4904333;29;19932;-83
2022/08/24 02:55:23;;;;;;;;;;;;;;;;;;4909343;29;19931;-82
2022/08/24 02:57:51;;;;;;;;;;;;;;;;;;4909083;29;19931;-83
2022/08/24 03:00:19;;;;;;;;;;;;;;;;;;4910936;29;19932;-84
2022/08/24 03:02:53;;;;;;;;;;;;;;;;;;4929905;29;19930;-83
2022/08/24 03:05:21;;;;;;;;;;;;;;;;;;4895644;29;19938;-83
2022/08/24 03:07:48;;;;;;;;;;;;;;;;;;4893607;29;20490;-84
2022/08/24 03:10:16;;;;;;;;;;;;;;;;;;4909381;29;19969;-83
2022/08/24 03:12:43;;;;;;;;;;;;;;;;;;4892903;29;19935;-83
2022/08/24 03:15:11;;;;;;;;;;;;;;;;;;4894322;29;19948;-83
2022/08/24 03:17:39;;;;;;;;;;;;;;;;;;4891482;29;19927;-84
2022/08/24 03:20:07;;;;;;;;;;;;;;;;;;4889839;29;19931;-84
2022/08/24 03:22:34;;;;;;;;;;;;;;;;;;4905524;29;19931;-83
2022/08/24 03:25:01;;;;;;;;;;;;;;;;;;4907059;29;19927;-84
2022/08/24 03:27:29;;;;;;;;;;;;;;;;;;4896577;29;19931;-82
2022/08/24 03:29:56;;;;;;;;;;;;;;;;;;4913016;29;19935;-83
2022/08/24 03:32:24;;;;;;;;;;;;;;;;;;4911065;29;20411;-83
2022/08/24 03:34:51;;;;;;;;;;;;;;;;;;4909933;29;19931;-83
2022/08/24 03:37:19;;;;;;;;;;;;;;;;;;4912060;29;19981;-82
2022/08/24 03:39:46;;;;;;;;;;;;;;;;;;4913992;29;19935;-83
2022/08/24 03:42:14;;;;;;;;;;;;;;;;;;4912919;29;19990;-83
2022/08/24 03:44:42;;;;;;;;;;;;;;;;;;4897936;29;19938;-82
2022/08/24 03:47:09;;;;;;;;;;;;;;;;;;4912718;29;19977;-82
2022/08/24 03:49:38;;;;;;;;;;;;;;;;;;4913103;29;19930;-83
2022/08/24 03:52:05;;;;;;;;;;;;;;;;;;4913626;29;20403;-83
2022/08/24 03:54:33;;;;;;;;;;;;;;;;;;4914173;29;20170;-83
2022/08/24 03:57:00;;;;;;;;;;;;;;;;;;4914782;29;19966;-83
2022/08/24 03:59:28;;;;;;;;;;;;;;;;;;4898939;29;20363;-83
2022/08/24 04:01:57;;;;;;;;;;;;;;;;;;4897786;29;20035;-83
2022/08/24 04:04:25;;;;;;;;;;;;;;;;;;4898549;29;20029;-83
2022/08/24 04:06:53;;;;;;;;;;;;;;;;;;4900092;29;19932;-83
2022/08/24 04:09:21;;;;;;;;;;;;;;;;;;4914639;29;19942;-83
2022/08/24 04:11:49;;;;;;;;;;;;;;;;;;4913047;29;20434;-84
2022/08/24 04:14:19;;;;;;;;;;;;;;;;;;4913664;29;20306;-83
2022/08/24 04:17:03;;;;;;;;;;;;;;;;;;4883160;29;20314;-83
2022/08/24 04:19:35;;;;;;;;;;;;;;;;;;4898023;29;20013;-84
2022/08/24 04:22:03;;;;;;;;;;;;;;;;;;4912898;29;19938;-83
2022/08/24 04:24:30;;;;;;;;;;;;;;;;;;4913022;29;19982;-84
2022/08/24 04:26:58;;;;;;;;;;;;;;;;;;4910687;29;19928;-84
2022/08/24 04:29:25;;;;;;;;;;;;;;;;;;4910766;29;20609;-84
2022/08/24 04:31:52;;;;;;;;;;;;;;;;;;4908682;29;20049;-84
2022/08/24 04:34:21;;;;;;;;;;;;;;;;;;4910806;29;19931;-84
2022/08/24 04:36:49;;;;;;;;;;;;;;;;;;4911455;29;19927;-84
2022/08/24 04:39:17;;;;;;;;;;;;;;;;;;4912841;29;20005;-84
2022/08/24 04:41:58;;;;;;;;;;;;;;;;;;4924068;29;20299;-83
2022/08/24 04:44:32;;;;;;;;;;;;;;;;;;4911459;29;19931;-82
2022/08/24 04:47:00;;;;;;;;;;;;;;;;;;4908282;29;19979;-82
2022/08/24 04:49:28;;;;;;;;;;;;;;;;;;4912738;29;19937;-83
2022/08/24 04:51:56;;;;;;;;;;;;;;;;;;4911656;29;19953;-83
2022/08/24 04:54:24;;;;;;;;;;;;;;;;;;4911834;29;19935;-83
2022/08/24 04:57:14;;;;;;;;;;;;;;;;;;4895356;29;19934;-82
2022/08/24 04:59:45;;;;;;;;;;;;;;;;;;4912519;29;20331;-82
2022/08/24 05:02:12;;;;;;;;;;;;;;;;;;4909328;29;19932;-82
2022/08/24 05:04:39;;;;;;;;;;;;;;;;;;4922824;29;19950;-82
2022/08/24 05:07:07;;;;;;;;;;;;;;;;;;4894734;29;19942;-83
2022/08/24 05:09:35;;;;;;;;;;;;;;;;;;4911907;29;19971;-83
2022/08/24 05:12:02;;;;;;;;;;;;;;;;;;4911051;29;19937;-82
2022/08/24 05:14:34;;;;;;;;;;;;;;;;;;4910215;29;19937;-82
2022/08/24 05:17:02;;;;;;;;;;;;;;;;;;4907304;29;19931;-83
2022/08/24 05:19:30;;;;;;;;;;;;;;;;;;4907812;29;19937;-83
2022/08/24 05:22:01;;;;;;;;;;;;;;;;;;4911412;29;19931;-84
2022/08/24 05:24:45;;;;;;;;;;;;;;;;;;4889975;29;19937;-85
2022/08/24 05:27:12;;;;;;;;;;;;;;;;;;4909127;29;20310;-84
2022/08/24 05:29:40;;;;;;;;;;;;;;;;;;4911053;29;20030;-86
2022/08/24 05:32:08;;;;;;;;;;;;;;;;;;4904937;29;19931;-85
2022/08/24 05:34:38;;;;;;;;;;;;;;;;;;4893293;29;19958;-84
2022/08/24 05:37:07;;;;;;;;;;;;;;;;;;4909344;29;19935;-85
2022/08/24 05:39:44;;;;;;;;;;;;;;;;;;4905615;29;19978;-85
2022/08/24 05:42:16;;;;;;;;;;;;;;;;;;4903916;29;19931;-85
2022/08/24 05:44:47;;;;;;;;;;;;;;;;;;4905171;29;20519;-85
2022/08/24 05:47:18;;;;;;;;;;;;;;;;;;4907947;29;20039;-85
2022/08/24 05:49:51;;;;;;;;;;;;;;;;;;4923140;29;19941;-85
2022/08/24 05:52:22;;;;;;;;;;;;;;;;;;4898871;29;19927;-84
2022/08/24 05:54:50;;;;;;;;;;;;;;;;;;4893187;29;19937;-84
2022/08/24 05:57:17;;;;;;;;;;;;;;;;;;4908130;29;19935;-84
2022/08/24 06:00:03;;;;;;;;;;;;;;;;;;4904142;29;19931;-85
2022/08/24 06:02:42;;;;;;;;;;;;;;;;;;4899147;29;19931;-85
2022/08/24 06:05:10;;;;;;;;;;;;;;;;;;4894481;29;19990;-85
2022/08/24 06:07:37;;;;;;;;;;;;;;;;;;4910436;29;19946;-85
2022/08/24 06:10:04;;;;;;;;;;;;;;;;;;4906144;29;19931;-83
2022/08/24 06:12:52;;;;;;;;;;;;;;;;;;4889212;29;19973;-85
2022/08/24 06:15:20;;;;;;;;;;;;;;;;;;4877443;29;20416;-85
2022/08/24 06:17:49;;;;;;;;;;;;;;;;;;4908914;29;19927;-85
2022/08/24 06:20:16;;;;;;;;;;;;;;;;;;4910344;29;20284;-85
2022/08/24 06:22:44;;;;;;;;;;;;;;;;;;4908376;29;19935;-85
2022/08/24 06:27:57;;;;;;;;;;;;;;;;;;4902749;29;19935;-71
2022/08/24 06:30:25;;;;;;;;;;;;;;;;;;4906328;29;19959;-71
2022/08/24 06:33:18;;;;;;;;;;;;;;;;;;4905241;29;20292;-71
2022/08/24 06:35:48;;;;;;;;;;;;;;;;;;4906296;29;20025;-69
2022/08/24 06:38:16;;;;;;;;;;;;;;;;;;4904960;29;19978;-70
2022/08/24 06:40:44;;;;;;;;;;;;;;;;;;4906102;29;20391;-71
2022/08/24 06:43:12;;;;;;;;;;;;;;;;;;4890885;29;19941;-71
2022/08/24 06:45:46;;;;;;;;;;;;;;;;;;4907319;29;20399;-71
2022/08/24 06:48:16;;;;;;;;;;;;;;;;;;4891453;29;19986;-70
2022/08/24 06:50:44;;;;;;;;;;;;;;;;;;4896163;29;19931;-70
2022/08/24 06:53:14;;;;;;;;;;;;;;;;;;4906948;29;19954;-70
2022/08/24 06:55:42;;;;;;;;;;;;;;;;;;4906911;29;19928;-71
2022/08/24 06:58:09;;;;;;;;;;;;;;;;;;4876130;29;19927;-72
2022/08/24 07:00:37;;;;;;;;;;;;;;;;;;4880547;29;19931;-71
2022/08/24 07:03:06;;;;;;;;;;;;;;;;;;4913731;29;20376;-72
2022/08/24 07:05:35;;;;;;;;;;;;;;;;;;4924686;29;19978;-70
2022/08/24 07:08:25;;;;;;;;;;;;;;;;;;4912940;29;19931;-72
2022/08/24 07:10:54;;;;;;;;;;;;;;;;;;4931343;29;19931;-72
2022/08/24 07:13:22;;;;;;;;;;;;;;;;;;4915785;29;20520;-72
2022/08/24 07:15:50;;;;;;;;;;;;;;;;;;4916458;29;19934;-71
2022/08/24 07:18:18;;;;;;;;;;;;;;;;;;4917331;29;19926;-71
2022/08/24 07:20:49;;;;;;;;;;;;;;;;;;4900149;29;19982;-71
2022/08/24 07:23:34;;;;;;;;;;;;;;;;;;4931043;29;20013;-72
2022/08/24 07:26:08;;;;;;;;;;;;;;;;;;4932160;29;20334;-71
2022/08/24 07:28:37;;;;;;;;;;;;;;;;;;4914632;29;20033;-71
2022/08/24 07:31:04;;;;;;;;;;;;;;;;;;4930783;29;19930;-70
2022/08/24 07:33:37;;;;;;;;;;;;;;;;;;4929991;29;20025;-71
2022/08/24 07:36:04;;;;;;;;;;;;;;;;;;4931132;29;20406;-71
2022/08/24 07:38:32;;;;;;;;;;;;;;;;;;4930303;29;19981;-69
2022/08/24 07:41:00;;;;;;;;;;;;;;;;;;4930596;29;20451;-70
2022/08/24 07:43:48;;;;;;;;;;;;;;;;;;4930675;29;19985;-72
2022/08/24 07:46:15;;;;;;;;;;;;;;;;;;4915201;29;19974;-72
2022/08/24 07:48:43;;;;;;;;;;;;;;;;;;4913909;29;20029;-71
2022/08/24 07:51:11;;;;;;;;;;;;;;;;;;4918528;29;19931;-71
2022/08/24 07:53:39;;;;;;;;;;;;;;;;;;4913421;29;19966;-70
2022/08/24 07:56:20;;;;;;;;;;;;;;;;;;4922400;29;20454;-70
2022/08/24 07:58:48;;;;;;;;;;;;;;;;;;4933563;29;19954;-70
2022/08/24 08:01:18;;;;;;;;;;;;;;;;;;4949441;29;20437;-70
2022/08/24 08:03:45;;;;;;;;;;;;;;;;;;4949384;29;20057;-69
2022/08/24 08:06:13;;;;;;;;;;;;;;;;;;4932264;29;20041;-70
2022/08/24 08:08:42;;;;;;;;;;;;;;;;;;4947417;29;19966;-71
2022/08/24 08:11:10;;;;;;;;;;;;;;;;;;4938969;29;19949;-71
2022/08/24 08:13:39;;;;;;;;;;;;;;;;;;4920563;23;19934;-78
2022/08/24 08:16:11;;;;;;;;;;;;;;;;;;4912961;29;19935;-77
2022/08/24 08:18:39;;;;;;;;;;;;;;;;;;4926925;29;20003;-77
2022/08/24 08:24:13;;;;;;;;;;;;;;;;;;4911594;29;20320;-78
2022/08/24 08:24:13;;;;;;;;;;;;;;;;;;4911461;29;19931;-78
2022/08/24 08:26:42;;;;;;;;;;;;;;;;;;4912099;29;19991;-75
2022/08/24 08:29:19;;;;;;;;;;;;;;;;;;4913274;29;19927;-77
2022/08/24 08:31:46;;;;;;;;;;;;;;;;;;4911418;29;19950;-79
2022/08/24 08:34:16;;;;;;;;;;;;;;;;;;4911720;29;20208;-79
2022/08/24 08:36:44;;;;;;;;;;;;;;;;;;4910989;29;20100;-77
2022/08/24 08:39:12;;;;;;;;;;;;;;;;;;4895395;29;19931;-77
2022/08/24 08:41:41;;;;;;;;;;;;;;;;;;4895555;29;20018;-79
2022/08/24 08:44:16;;;;;;;;;;;;;;;;;;4911488;29;19946;-78
2022/08/24 08:46:44;;;;;;;;;;;;;;;;;;4911169;29;19931;-78
2022/08/24 08:49:31;;;;;;;;;;;;;;;;;;4912144;29;19938;-80
2022/08/24 08:51:59;;;;;;;;;;;;;;;;;;4912314;29;20059;-79
2022/08/24 08:54:26;;;;;;;;;;;;;;;;;;4911775;29;19970;-78
2022/08/24 08:56:53;;;;;;;;;;;;;;;;;;4911434;29;20022;-76
2022/08/24 08:59:26;;;;;;;;;;;;;;;;;;4911529;29;20029;-77
2022/08/24 09:01:55;;;;;;;;;;;;;;;;;;4910775;29;19927;-77
2022/08/24 09:04:35;;;;;;;;;;;;;;;;;;4910556;29;19931;-79
2022/08/24 09:07:05;;;;;;;;;;;;;;;;;;4895523;29;19953;-78
2022/08/24 09:09:36;;;;;;;;;;;;;;;;;;4911758;29;20033;-77
2022/08/24 09:12:05;;;;;;;;;;;;;;;;;;4910814;29;20404;-79
2022/08/24 09:14:32;;;;;;;;;;;;;;;;;;4910570;29;20278;-78
2022/08/24 09:16:59;;;;;;;;;;;;;;;;;;4909914;29;19958;-78
2022/08/24 09:19:27;;;;;;;;;;;;;;;;;;4910947;29;20043;-77
2022/08/24 09:21:58;;;;;;;;;;;;;;;;;;4911042;29;20352;-77
2022/08/24 09:24:25;;;;;;;;;;;;;;;;;;4909926;29;20407;-78
2022/08/24 09:27:00;;;;;;;;;;;;;;;;;;4910113;29;20030;-79
2022/08/24 09:29:27;;;;;;;;;;;;;;;;;;4911446;29;19931;-79
2022/08/24 09:31:55;;;;;;;;;;;;;;;;;;4911231;29;19935;-78
2022/08/24 09:34:22;;;;;;;;;;;;;;;;;;4911644;29;19966;-79
2022/08/24 09:36:49;;;;;;;;;;;;;;;;;;4894747;29;19931;-77
2022/08/24 09:39:17;;;;;;;;;;;;;;;;;;4911399;29;19931;-78
2022/08/24 09:41:44;;;;;;;;;;;;;;;;;;4912152;29;19980;-78
2022/08/24 09:44:11;;;;;;;;;;;;;;;;;;4910385;29;19931;-78
2022/08/24 09:46:38;;;;;;;;;;;;;;;;;;4911453;29;19933;-79
2022/08/24 09:49:06;;;;;;;;;;;;;;;;;;4894337;29;19974;-78
2022/08/24 09:51:37;;;;;;;;;;;;;;;;;;4911286;29;20039;-79
2022/08/24 09:54:04;;;;;;;;;;;;;;;;;;4911281;29;19963;-78
2022/08/24 09:56:31;;;;;;;;;;;;;;;;;;4911152;29;20026;-79
2022/08/24 09:58:59;;;;;;;;;;;;;;;;;;4911308;29;19927;-79
2022/08/24 10:01:26;;;;;;;;;;;;;;;;;;4910101;29;19931;-78
2022/08/24 10:03:53;;;;;;;;;;;;;;;;;;4911425;29;19930;-78
2022/08/24 10:06:21;;;;;;;;;;;;;;;;;;4911141;29;19930;-78
2022/08/24 10:08:48;;;;;;;;;;;;;;;;;;4909490;29;19931;-78
2022/08/24 10:11:15;;;;;;;;;;;;;;;;;;4910775;29;19933;-78
2022/08/24 10:13:43;;;;;;;;;;;;;;;;;;4910892;29;19931;-78
2022/08/24 10:16:10;;;;;;;;;;;;;;;;;;4911451;29;19927;-77
2022/08/24 10:18:37;;;;;;;;;;;;;;;;;;4910761;29;19931;-78
2022/08/24 10:21:07;;;;;;;;;;;;;;;;;;4909768;29;19970;-78
2022/08/24 10:23:34;;;;;;;;;;;;;;;;;;4910187;29;20279;-77
2022/08/24 10:26:02;;;;;;;;;;;;;;;;;;4909729;29;19931;-78
2022/08/24 10:28:30;;;;;;;;;;;;;;;;;;4910720;29;20366;-79
2022/08/24 10:30:57;;;;;;;;;;;;;;;;;;4910687;29;19938;-80
2022/08/24 10:33:24;;;;;;;;;;;;;;;;;;4911360;29;20010;-76
2022/08/24 10:35:51;;;;;;;;;;;;;;;;;;4910024;29;20283;-76
2022/08/24 10:41:07;;;;;;;;;;;;;;;;;;4910933;29;19934;-77
2022/08/24 10:43:34;;;;;;;;;;;;;;;;;;4910665;29;20013;-77
2022/08/24 10:46:01;;;;;;;;;;;;;;;;;;4910618;29;20420;-77
2022/08/24 10:48:28;;;;;;;;;;;;;;;;;;4910425;29;19959;-77
2022/08/24 10:50:56;;;;;;;;;;;;;;;;;;4909324;29;19997;-78
2022/08/24 10:53:24;;;;;;;;;;;;;;;;;;4910564;29;20014;-79
2022/08/24 10:55:51;;;;;;;;;;;;;;;;;;4911193;29;20042;-78
2022/08/24 10:58:19;;;;;;;;;;;;;;;;;;4910777;29;19935;-79
2022/08/24 11:00:46;;;;;;;;;;;;;;;;;;4909268;29;19938;-78
2022/08/24 11:03:14;;;;;;;;;;;;;;;;;;4910732;29;19931;-79
2022/08/24 11:05:41;;;;;;;;;;;;;;;;;;4910631;29;19935;-78
2022/08/24 11:08:09;;;;;;;;;;;;;;;;;;4910510;29;19927;-78
2022/08/24 11:10:36;;;;;;;;;;;;;;;;;;4924571;29;20029;-77
2022/08/24 11:13:03;;;;;;;;;;;;;;;;;;4910413;29;19931;-78
2022/08/24 11:15:30;;;;;;;;;;;;;;;;;;4910424;29;20102;-78
2022/08/24 11:17:59;;;;;;;;;;;;;;;;;;4909698;29;20018;-78
2022/08/24 11:20:26;;;;;;;;;;;;;;;;;;4908433;29;19927;-79
2022/08/24 11:22:53;;;;;;;;;;;;;;;;;;4907653;29;19930;-79
2022/08/24 11:25:20;;;;;;;;;;;;;;;;;;4908040;29;19966;-77
2022/08/24 11:27:48;;;;;;;;;;;;;;;;;;4909975;29;19937;-77
2022/08/24 11:30:15;;;;;;;;;;;;;;;;;;4909915;29;19931;-77
2022/08/24 11:32:43;;;;;;;;;;;;;;;;;;4910234;29;19931;-78
2022/08/24 11:35:10;;;;;;;;;;;;;;;;;;4907020;29;19985;-78
2022/08/24 11:37:38;;;;;;;;;;;;;;;;;;4904637;29;19935;-78
2022/08/24 11:40:05;;;;;;;;;;;;;;;;;;4908422;29;19971;-78
2022/08/24 11:42:33;;;;;;;;;;;;;;;;;;4906260;29;19938;-77
2022/08/24 11:45:00;;;;;;;;;;;;;;;;;;4922729;29;19931;-78
2022/08/24 11:47:27;;;;;;;;;;;;;;;;;;4909934;29;19930;-79
2022/08/24 11:49:54;;;;;;;;;;;;;;;;;;4911056;29;20058;-77
2022/08/24 11:52:22;;;;;;;;;;;;;;;;;;4911128;29;19949;-78
2022/08/24 11:54:49;;;;;;;;;;;;;;;;;;4911339;29;19954;-79
2022/08/24 11:57:17;;;;;;;;;;;;;;;;;;4907090;29;19935;-77
2022/08/24 11:59:44;;;;;;;;;;;;;;;;;;4910731;29;20423;-80
2022/08/24 12:02:11;;;;;;;;;;;;;;;;;;4909186;29;19953;-77
2022/08/24 12:04:39;;;;;;;;;;;;;;;;;;4908839;29;19931;-78
2022/08/24 12:07:06;;;;;;;;;;;;;;;;;;4908660;29;19941;-79
2022/08/24 12:09:33;;;;;;;;;;;;;;;;;;4910601;29;19969;-77
2022/08/24 12:12:00;;;;;;;;;;;;;;;;;;4893057;29;20018;-79
2022/08/24 12:14:28;;;;;;;;;;;;;;;;;;4910485;29;20038;-77
2022/08/24 12:16:56;;;;;;;;;;;;;;;;;;4910077;29;19993;-77
2022/08/24 12:19:23;;;;;;;;;;;;;;;;;;4910894;29;19974;-79
2022/08/24 12:21:50;;;;;;;;;;;;;;;;;;4910799;29;19927;-77
2022/08/24 12:24:18;;;;;;;;;;;;;;;;;;4908911;29;19935;-77
2022/08/24 12:26:45;;;;;;;;;;;;;;;;;;4892374;29;19938;-77
2022/08/24 12:29:12;;;;;;;;;;;;;;;;;;4900474;29;20043;-77
2022/08/24 12:31:40;;;;;;;;;;;;;;;;;;4908758;29;20037;-80
2022/08/24 12:34:07;;;;;;;;;;;;;;;;;;4911175;29;20451;-77
2022/08/24 12:36:35;;;;;;;;;;;;;;;;;;4910797;29;20331;-77
2022/08/24 12:39:03;;;;;;;;;;;;;;;;;;4911806;29;19986;-77
2022/08/24 12:41:30;;;;;;;;;;;;;;;;;;4911340;29;20489;-80
2022/08/24 12:43:58;;;;;;;;;;;;;;;;;;4925371;29;19931;-77
2022/08/24 12:46:25;;;;;;;;;;;;;;;;;;4911115;29;20038;-78
2022/08/24 12:48:52;;;;;;;;;;;;;;;;;;4925490;29;20474;-80
2022/08/24 12:51:21;;;;;;;;;;;;;;;;;;4910779;29;19931;-79
2022/08/24 12:53:48;;;;;;;;;;;;;;;;;;4909683;29;20014;-78
2022/08/24 12:56:18;;;;;;;;;;;;;;;;;;4911287;29;20463;-78
2022/08/24 12:58:45;;;;;;;;;;;;;;;;;;4910265;29;20526;-80
2022/08/24 13:01:20;;;;;;;;;;;;;;;;;;4910876;29;19949;-78
2022/08/24 13:03:47;;;;;;;;;;;;;;;;;;4910130;29;19942;-79
2022/08/24 13:06:15;;;;;;;;;;;;;;;;;;4910033;29;19934;-78
2022/08/24 13:08:42;;;;;;;;;;;;;;;;;;4910170;29;19931;-77
2022/08/24 13:11:09;;;;;;;;;;;;;;;;;;4910694;29;20241;-77
2022/08/24 13:13:36;;;;;;;;;;;;;;;;;;4911112;29;20298;-79
2022/08/24 13:16:04;;;;;;;;;;;;;;;;;;4910924;29;20022;-79
2022/08/24 13:18:31;;;;;;;;;;;;;;;;;;4909922;29;20396;-77
2022/08/24 13:20:59;;;;;;;;;;;;;;;;;;4909748;29;20006;-80
2022/08/24 13:23:26;;;;;;;;;;;;;;;;;;4910507;29;20113;-78
2022/08/24 13:25:53;;;;;;;;;;;;;;;;;;4924424;23;20277;-71
2022/08/24 13:30:48;;;;;;;;;;;;;;;;;;4928504;29;20049;-69
2022/08/24 13:33:16;;;;;;;;;;;;;;;;;;4928790;29;19934;-70
2022/08/24 13:35:43;;;;;;;;;;;;;;;;;;4919785;29;19930;-68
2022/08/24 13:38:11;;;;;;;;;;;;;;;;;;4915338;29;20264;-69
2022/08/24 13:40:38;;;;;;;;;;;;;;;;;;4917881;29;20323;-70
2022/08/24 13:43:06;;;;;;;;;;;;;;;;;;4914339;29;20035;-70
2022/08/24 13:45:33;;;;;;;;;;;;;;;;;;4927003;29;19941;-69
2022/08/24 13:48:02;;;;;;;;;;;;;;;;;;4923521;29;19937;-69
2022/08/24 13:50:30;;;;;;;;;;;;;;;;;;4926387;29;19934;-70
2022/08/24 13:52:57;;;;;;;;;;;;;;;;;;4926227;29;19941;-70
2022/08/24 13:55:24;;;;;;;;;;;;;;;;;;4921954;29;19927;-70
2022/08/24 13:57:52;;;;;;;;;;;;;;;;;;4922753;29;20218;-70
2022/08/24 14:00:19;;;;;;;;;;;;;;;;;;4928917;29;20392;-70
2022/08/24 14:02:46;;;;;;;;;;;;;;;;;;4944984;29;19998;-69
2022/08/24 14:05:15;;;;;;;;;;;;;;;;;;4940607;29;19931;-70
2022/08/24 14:07:43;;;;;;;;;;;;;;;;;;4941517;29;19982;-70
2022/08/24 14:10:10;;;;;;;;;;;;;;;;;;4942775;29;19986;-70
2022/08/24 14:12:37;;;;;;;;;;;;;;;;;;4942026;29;19930;-68
2022/08/24 14:15:05;;;;;;;;;;;;;;;;;;4939480;29;20280;-70
2022/08/24 14:17:50;;;;;;;;;;;;;;;;;;4941292;29;19927;-69
2022/08/24 14:20:21;;;;;;;;;;;;;;;;;;4939122;29;19931;-69
2022/08/24 14:22:48;;;;;;;;;;;;;;;;;;4938253;29;19930;-70
2022/08/24 14:25:16;;;;;;;;;;;;;;;;;;4931489;29;20347;-70
2022/08/24 14:27:43;;;;;;;;;;;;;;;;;;4926055;29;19930;-70
2022/08/24 14:30:11;;;;;;;;;;;;;;;;;;4926320;29;19931;-70
2022/08/24 14:32:38;;;;;;;;;;;;;;;;;;4925724;29;19950;-70
2022/08/24 14:35:05;;;;;;;;;;;;;;;;;;4925155;29;19930;-70
2022/08/24 14:37:32;;;;;;;;;;;;;;;;;;4922957;29;20017;-70
2022/08/24 14:40:00;;;;;;;;;;;;;;;;;;4924728;29;20052;-71
2022/08/24 14:42:27;;;;;;;;;;;;;;;;;;4923039;29;19982;-70
2022/08/24 14:44:54;;;;;;;;;;;;;;;;;;4926081;29;19927;-70
2022/08/24 14:47:21;;;;;;;;;;;;;;;;;;4926352;29;20406;-70
2022/08/24 14:49:49;;;;;;;;;;;;;;;;;;4927140;29;19927;-70
2022/08/24 14:52:18;;;;;;;;;;;;;;;;;;4926468;29;19935;-70
2022/08/24 14:54:45;;;;;;;;;;;;;;;;;;4925208;29;20014;-70
2022/08/24 14:57:12;;;;;;;;;;;;;;;;;;4923125;29;19942;-71
2022/08/24 14:59:39;;;;;;;;;;;;;;;;;;4926864;29;19990;-70
2022/08/24 15:02:07;;;;;;;;;;;;;;;;;;4926206;29;19949;-70
2022/08/24 15:04:34;;;;;;;;;;;;;;;;;;4924803;29;19969;-70
2022/08/24 15:07:04;;;;;;;;;;;;;;;;;;4924366;29;19966;-70
2022/08/24 15:09:35;;;;;;;;;;;;;;;;;;4925710;29;20272;-70
2022/08/24 15:12:02;;;;;;;;;;;;;;;;;;4926249;29;20032;-70
2022/08/24 15:14:30;;;;;;;;;;;;;;;;;;4924647;29;19931;-70
2022/08/24 15:17:03;;;;;;;;;;;;;;;;;;4927047;29;19977;-70
2022/08/24 15:19:31;;;;;;;;;;;;;;;;;;4922324;29;20100;-70
2022/08/24 15:21:58;;;;;;;;;;;;;;;;;;4929403;29;20215;-70
2022/08/24 15:24:25;;;;;;;;;;;;;;;;;;4927906;29;19926;-70
2022/08/24 15:26:59;;;;;;;;;;;;;;;;;;4927331;29;19974;-69
2022/08/24 15:29:26;;;;;;;;;;;;;;;;;;4929245;29;19926;-70
2022/08/24 15:31:53;;;;;;;;;;;;;;;;;;4926629;29;20026;-70
2022/08/24 15:34:21;;;;;;;;;;;;;;;;;;4927798;29;20227;-69
2022/08/24 15:36:48;;;;;;;;;;;;;;;;;;4929062;29;19927;-70
2022/08/24 15:39:15;;;;;;;;;;;;;;;;;;4929027;29;20344;-70
2022/08/24 15:41:43;;;;;;;;;;;;;;;;;;4929385;29;20009;-70
2022/08/24 15:44:10;;;;;;;;;;;;;;;;;;4927830;29;19931;-70
2022/08/24 15:46:37;;;;;;;;;;;;;;;;;;4930075;29;20387;-69
2022/08/24 15:49:04;;;;;;;;;;;;;;;;;;4932355;29;19974;-70
2022/08/24 15:51:32;;;;;;;;;;;;;;;;;;4930330;29;20031;-69
2022/08/24 15:53:59;;;;;;;;;;;;;;;;;;4929014;29;19937;-70
2022/08/24 15:56:28;;;;;;;;;;;;;;;;;;4914714;29;19938;-70
2022/08/24 15:58:55;;;;;;;;;;;;;;;;;;4929680;29;19927;-70
2022/08/24 16:04:08;;;;;;;;;;;;;;;;;;4916536;29;19939;-69
2022/08/24 16:06:36;;;;;;;;;;;;;;;;;;4929416;29;19927;-70
2022/08/24 16:09:03;;;;;;;;;;;;;;;;;;4931514;29;20386;-70
2022/08/24 16:11:30;;;;;;;;;;;;;;;;;;4926195;29;20182;-70
2022/08/24 16:13:57;;;;;;;;;;;;;;;;;;4932032;29;20028;-70
2022/08/24 16:16:25;;;;;;;;;;;;;;;;;;4926238;29;20021;-70
2022/08/24 16:18:52;;;;;;;;;;;;;;;;;;4928470;29;20413;-69
2022/08/24 16:21:19;;;;;;;;;;;;;;;;;;4926247;29;19938;-69
2022/08/24 16:23:47;;;;;;;;;;;;;;;;;;4928283;29;20364;-70
2022/08/24 16:26:14;;;;;;;;;;;;;;;;;;4927363;29;19942;-70
2022/08/24 16:28:41;;;;;;;;;;;;;;;;;;4924700;29;20141;-70
2022/08/24 16:31:09;;;;;;;;;;;;;;;;;;4925114;29;19953;-70
2022/08/24 16:33:36;;;;;;;;;;;;;;;;;;4927733;29;20400;-71
2022/08/24 16:36:09;;;;;;;;;;;;;;;;;;4930262;29;19927;-69
2022/08/24 16:38:36;;;;;;;;;;;;;;;;;;4928289;29;19926;-69
2022/08/24 16:41:04;;;;;;;;;;;;;;;;;;4930014;29;19959;-70
2022/08/24 16:43:32;;;;;;;;;;;;;;;;;;4930570;29;19937;-69
2022/08/24 16:45:59;;;;;;;;;;;;;;;;;;4929519;29;19970;-70
2022/08/24 16:48:26;;;;;;;;;;;;;;;;;;4929511;29;20306;-69
2022/08/24 16:50:55;;;;;;;;;;;;;;;;;;4929872;29;19970;-70
2022/08/24 16:53:23;;;;;;;;;;;;;;;;;;4929432;29;19931;-70
2022/08/24 16:55:50;;;;;;;;;;;;;;;;;;4929402;29;20386;-69
2022/08/24 16:58:17;;;;;;;;;;;;;;;;;;4929112;29;19941;-70
2022/08/24 17:00:45;;;;;;;;;;;;;;;;;;4928990;29;19954;-70
2022/08/24 17:03:12;;;;;;;;;;;;;;;;;;4929196;29;19933;-70
2022/08/24 17:05:42;;;;;;;;;;;;;;;;;;4928840;29;19931;-69
2022/08/24 17:08:10;;;;;;;;;;;;;;;;;;4928645;29;19930;-70